sensor_id;sensor_type;location;lat;lon;timestamp;pressure;altitude;pressure_sealevel;temperature;humidity
42335;BME280;27986;42.700;24.178;2023-02-15T00:00:53;94797.38;;;0.42;71.69
42335;BME280;27986;42.700;24.178;2023-02-15T00:03:22;94825.31;;;0.35;72.79
42335;BME280;27986;42.700;24.178;2023-02-15T00:05:47;94830.41;;;0.37;72.63
42335;BME280;27986;42.700;24.178;2023-02-15T00:08:12;94806.56;;;0.10;72.48
42335;BME280;27986;42.700;24.178;2023-02-15T00:10:38;94833.91;;;0.24;73.80
42335;BME280;27986;42.700;24.178;2023-02-15T00:13:06;94874.81;;;0.37;74.51
42335;BME280;27986;42.700;24.178;2023-02-15T00:15:31;94800.31;;;-0.55;76.79
42335;BME280;27986;42.700;24.178;2023-02-15T00:17:57;94818.91;;;-0.40;78.75
42335;BME280;27986;42.700;24.178;2023-02-15T00:20:22;94806.06;;;-0.17;77.34
42335;BME280;27986;42.700;24.178;2023-02-15T00:22:48;94845.84;;;0.38;75.69
42335;BME280;27986;42.700;24.178;2023-02-15T00:25:13;94799.66;;;0.02;73.21
42335;BME280;27986;42.700;24.178;2023-02-15T00:27:39;94809.81;;;-0.24;74.00
42335;BME280;27986;42.700;24.178;2023-02-15T00:30:04;94790.25;;;-0.17;73.96
42335;BME280;27986;42.700;24.178;2023-02-15T00:32:34;94816.38;;;-0.18;73.84
42335;BME280;27986;42.700;24.178;2023-02-15T00:34:59;94827.88;;;-0.03;74.54
42335;BME280;27986;42.700;24.178;2023-02-15T00:37:26;94847.13;;;0.04;74.52
42335;BME280;27986;42.700;24.178;2023-02-15T00:39:51;94860.19;;;0.20;74.42
42335;BME280;27986;42.700;24.178;2023-02-15T00:42:17;94815.50;;;0.02;73.81
42335;BME280;27986;42.700;24.178;2023-02-15T00:44:42;94877.13;;;0.38;73.08
42335;BME280;27986;42.700;24.178;2023-02-15T00:47:07;94834.59;;;-0.33;74.98
42335;BME280;27986;42.700;24.178;2023-02-15T00:49:33;94787.72;;;-0.28;74.55
42335;BME280;27986;42.700;24.178;2023-02-15T00:51:58;94787.28;;;-0.26;73.78
42335;BME280;27986;42.700;24.178;2023-02-15T00:54:24;94818.91;;;-0.23;74.54
42335;BME280;27986;42.700;24.178;2023-02-15T00:56:49;94753.72;;;-0.44;74.25
42335;BME280;27986;42.700;24.178;2023-02-15T00:59:15;94784.72;;;-0.66;77.32
42335;BME280;27986;42.700;24.178;2023-02-15T01:01:40;94841.56;;;0.04;76.79
42335;BME280;27986;42.700;24.178;2023-02-15T01:04:06;94835.84;;;0.11;75.68
42335;BME280;27986;42.700;24.178;2023-02-15T01:06:33;94784.97;;;-0.44;76.72
42335;BME280;27986;42.700;24.178;2023-02-15T01:08:58;94786.16;;;-0.29;75.96
42335;BME280;27986;42.700;24.178;2023-02-15T01:11:24;94820.59;;;0.19;74.69
42335;BME280;27986;42.700;24.178;2023-02-15T01:13:56;94792.84;;;0.19;72.50
42335;BME280;27986;42.700;24.178;2023-02-15T01:16:24;94764.72;;;-0.24;72.99
42335;BME280;27986;42.700;24.178;2023-02-15T01:18:51;94775.22;;;-0.03;73.57
42335;BME280;27986;42.700;24.178;2023-02-15T01:21:19;94821.66;;;0.38;72.55
42335;BME280;27986;42.700;24.178;2023-02-15T01:23:45;94775.81;;;-0.41;74.60
42335;BME280;27986;42.700;24.178;2023-02-15T01:26:11;94817.97;;;-0.17;75.16
42335;BME280;27986;42.700;24.178;2023-02-15T01:28:37;94810.28;;;-0.42;76.90
42335;BME280;27986;42.700;24.178;2023-02-15T01:31:08;94831.56;;;-0.22;77.73
42335;BME280;27986;42.700;24.178;2023-02-15T01:33:35;94828.69;;;-0.19;76.46
42335;BME280;27986;42.700;24.178;2023-02-15T01:36:01;94803.53;;;0.05;75.25
42335;BME280;27986;42.700;24.178;2023-02-15T01:38:26;94823.28;;;0.07;73.03
42335;BME280;27986;42.700;24.178;2023-02-15T01:40:53;94840.91;;;0.00;73.19
42335;BME280;27986;42.700;24.178;2023-02-15T01:43:19;94765.16;;;-0.59;73.51
42335;BME280;27986;42.700;24.178;2023-02-15T01:45:47;94780.91;;;-0.72;75.08
42335;BME280;27986;42.700;24.178;2023-02-15T01:48:19;94849.81;;;-0.09;75.74
42335;BME280;27986;42.700;24.178;2023-02-15T01:50:53;94811.44;;;-0.26;74.74
42335;BME280;27986;42.700;24.178;2023-02-15T01:53:33;94846.97;;;-0.05;74.90
42335;BME280;27986;42.700;24.178;2023-02-15T01:56:10;94809.97;;;-0.80;76.50
42335;BME280;27986;42.700;24.178;2023-02-15T01:58:38;94853.16;;;-0.82;78.38
42335;BME280;27986;42.700;24.178;2023-02-15T02:01:04;94843.50;;;-0.42;77.88
42335;BME280;27986;42.700;24.178;2023-02-15T02:03:43;94764.56;;;-0.82;77.12
42335;BME280;27986;42.700;24.178;2023-02-15T02:06:12;94739.34;;;-1.04;77.15
42335;BME280;27986;42.700;24.178;2023-02-15T02:08:38;94816.03;;;-0.52;77.78
42335;BME280;27986;42.700;24.178;2023-02-15T02:11:13;94793.81;;;-0.49;76.81
42335;BME280;27986;42.700;24.178;2023-02-15T02:13:42;94827.56;;;-0.38;74.84
42335;BME280;27986;42.700;24.178;2023-02-15T02:43:54;94858.97;;;-0.61;75.80
42335;BME280;27986;42.700;24.178;2023-02-15T02:46:40;94794.63;;;-0.85;75.87
42335;BME280;27986;42.700;24.178;2023-02-15T02:49:08;94832.91;;;-0.79;76.08
42335;BME280;27986;42.700;24.178;2023-02-15T02:51:33;94775.94;;;-0.97;76.71
42335;BME280;27986;42.700;24.178;2023-02-15T02:54:00;94851.72;;;-0.54;78.52
42335;BME280;27986;42.700;24.178;2023-02-15T02:58:59;94799.53;;;-0.56;76.82
42335;BME280;27986;42.700;24.178;2023-02-15T03:01:28;94852.78;;;-0.32;77.18
42335;BME280;27986;42.700;24.178;2023-02-15T03:04:20;94868.06;;;-0.60;77.17
42335;BME280;27986;42.700;24.178;2023-02-15T03:06:59;94865.47;;;-0.35;76.20
42335;BME280;27986;42.700;24.178;2023-02-15T03:09:52;94777.38;;;-0.56;74.49
42335;BME280;27986;42.700;24.178;2023-02-15T03:12:19;94865.56;;;0.27;73.05
42335;BME280;27986;42.700;24.178;2023-02-15T03:14:48;94841.59;;;-0.29;74.96
42335;BME280;27986;42.700;24.178;2023-02-15T03:17:17;94890.69;;;0.04;74.81
42335;BME280;27986;42.700;24.178;2023-02-15T03:19:45;94836.22;;;-0.36;74.35
42335;BME280;27986;42.700;24.178;2023-02-15T03:22:22;94847.28;;;-0.52;73.52
42335;BME280;27986;42.700;24.178;2023-02-15T03:27:26;94876.13;;;-0.86;76.87
42335;BME280;27986;42.700;24.178;2023-02-15T03:29:58;94900.31;;;-0.34;77.09
42335;BME280;27986;42.700;24.178;2023-02-15T03:32:25;94903.34;;;-0.12;75.05
42335;BME280;27986;42.700;24.178;2023-02-15T03:34:56;94900.69;;;0.01;74.85
42335;BME280;27986;42.700;24.178;2023-02-15T03:37:47;94896.16;;;0.07;74.79
42335;BME280;27986;42.700;24.178;2023-02-15T03:40:21;94857.94;;;-0.18;74.37
42335;BME280;27986;42.700;24.178;2023-02-15T03:43:15;94903.94;;;0.12;73.78
42335;BME280;27986;42.700;24.178;2023-02-15T03:45:45;94858.22;;;-0.45;74.54
42335;BME280;27986;42.700;24.178;2023-02-15T03:48:26;94839.84;;;-0.55;75.29
42335;BME280;27986;42.700;24.178;2023-02-15T03:50:57;94833.81;;;-0.50;74.66
42335;BME280;27986;42.700;24.178;2023-02-15T03:53:45;94881.59;;;-0.13;74.63
42335;BME280;27986;42.700;24.178;2023-02-15T03:56:11;94834.41;;;-0.95;77.11
42335;BME280;27986;42.700;24.178;2023-02-15T03:58:37;94828.72;;;-0.88;77.93
42335;BME280;27986;42.700;24.178;2023-02-15T04:01:55;94887.31;;;-0.20;76.09
42335;BME280;27986;42.700;24.178;2023-02-15T04:04:38;94907.06;;;0.14;74.72
42335;BME280;27986;42.700;24.178;2023-02-15T04:07:06;94901.88;;;-0.16;73.37
42335;BME280;27986;42.700;24.178;2023-02-15T04:09:32;94861.84;;;-0.48;74.82
42335;BME280;27986;42.700;24.178;2023-02-15T04:12:16;94891.22;;;-0.18;74.62
42335;BME280;27986;42.700;24.178;2023-02-15T04:14:42;94888.81;;;-0.16;73.84
42335;BME280;27986;42.700;24.178;2023-02-15T04:17:26;94844.38;;;-0.29;72.15
42335;BME280;27986;42.700;24.178;2023-02-15T04:19:52;94889.41;;;-0.41;73.02
42335;BME280;27986;42.700;24.178;2023-02-15T04:22:36;94878.22;;;-0.90;75.51
42335;BME280;27986;42.700;24.178;2023-02-15T04:25:20;94847.81;;;-0.93;76.16
42335;BME280;27986;42.700;24.178;2023-02-15T04:27:48;94932.66;;;-0.47;76.86
42335;BME280;27986;42.700;24.178;2023-02-15T04:30:16;94923.06;;;-0.26;75.61
42335;BME280;27986;42.700;24.178;2023-02-15T04:32:41;94856.94;;;-0.76;75.65
42335;BME280;27986;42.700;24.178;2023-02-15T04:35:07;94893.56;;;-0.33;75.23
42335;BME280;27986;42.700;24.178;2023-02-15T04:37:33;94943.97;;;-0.21;75.24
42335;BME280;27986;42.700;24.178;2023-02-15T04:39:58;94860.19;;;-0.45;74.62
42335;BME280;27986;42.700;24.178;2023-02-15T04:42:24;94887.28;;;-0.53;73.86
42335;BME280;27986;42.700;24.178;2023-02-15T04:44:51;94883.28;;;-0.68;75.93
42335;BME280;27986;42.700;24.178;2023-02-15T04:47:16;94915.28;;;-0.31;75.28
42335;BME280;27986;42.700;24.178;2023-02-15T04:49:42;94892.38;;;-0.51;74.89
42335;BME280;27986;42.700;24.178;2023-02-15T04:52:08;94934.16;;;-0.26;75.96
42335;BME280;27986;42.700;24.178;2023-02-15T04:54:33;94896.34;;;-0.33;75.32
42335;BME280;27986;42.700;24.178;2023-02-15T04:56:58;94892.75;;;-0.49;75.03
42335;BME280;27986;42.700;24.178;2023-02-15T04:59:24;94879.25;;;-0.47;75.32
42335;BME280;27986;42.700;24.178;2023-02-15T05:01:50;94880.22;;;-0.21;74.21
42335;BME280;27986;42.700;24.178;2023-02-15T05:04:15;94929.25;;;0.31;73.51
42335;BME280;27986;42.700;24.178;2023-02-15T05:06:40;94922.66;;;-0.24;74.07
42335;BME280;27986;42.700;24.178;2023-02-15T05:09:06;94957.56;;;-0.11;74.06
42335;BME280;27986;42.700;24.178;2023-02-15T05:11:31;94870.91;;;-0.64;74.17
42335;BME280;27986;42.700;24.178;2023-02-15T05:13:57;94958.91;;;-0.35;75.47
42335;BME280;27986;42.700;24.178;2023-02-15T05:16:22;94851.94;;;-1.37;76.62
42335;BME280;27986;42.700;24.178;2023-02-15T05:18:47;94884.56;;;-1.09;76.70
42335;BME280;27986;42.700;24.178;2023-02-15T05:21:13;94899.94;;;-0.88;76.24
42335;BME280;27986;42.700;24.178;2023-02-15T05:23:39;94959.34;;;-0.73;77.03
42335;BME280;27986;42.700;24.178;2023-02-15T05:26:04;94967.97;;;-0.51;77.11
42335;BME280;27986;42.700;24.178;2023-02-15T05:28:49;94908.44;;;-0.79;76.10
42335;BME280;27986;42.700;24.178;2023-02-15T05:31:16;94967.13;;;-0.48;75.99
42335;BME280;27986;42.700;24.178;2023-02-15T05:33:43;94969.66;;;-0.37;75.96
42335;BME280;27986;42.700;24.178;2023-02-15T05:36:10;94915.84;;;-0.92;75.82
42335;BME280;27986;42.700;24.178;2023-02-15T05:38:36;94992.41;;;-0.46;76.70
42335;BME280;27986;42.700;24.178;2023-02-15T05:41:03;94855.69;;;-1.28;75.57
42335;BME280;27986;42.700;24.178;2023-02-15T05:43:30;94980.41;;;-0.59;77.23
42335;BME280;27986;42.700;24.178;2023-02-15T05:45:56;94981.31;;;-0.46;77.19
42335;BME280;27986;42.700;24.178;2023-02-15T05:48:24;94917.88;;;-0.76;76.76
42335;BME280;27986;42.700;24.178;2023-02-15T05:51:10;94986.16;;;-0.14;76.18
42335;BME280;27986;42.700;24.178;2023-02-15T05:53:39;94990.31;;;-0.22;75.44
42335;BME280;27986;42.700;24.178;2023-02-15T05:56:07;94965.47;;;-0.45;76.45
42335;BME280;27986;42.700;24.178;2023-02-15T05:58:35;94993.47;;;0.13;74.58
42335;BME280;27986;42.700;24.178;2023-02-15T06:01:27;94999.28;;;0.18;74.50
42335;BME280;27986;42.700;24.178;2023-02-15T06:03:53;94924.34;;;-0.47;74.18
42335;BME280;27986;42.700;24.178;2023-02-15T06:06:19;94925.84;;;-0.26;74.06
42335;BME280;27986;42.700;24.178;2023-02-15T06:08:45;94958.50;;;-0.17;73.97
42335;BME280;27986;42.700;24.178;2023-02-15T06:11:11;94941.47;;;-0.16;74.58
42335;BME280;27986;42.700;24.178;2023-02-15T06:13:36;94969.22;;;0.01;74.28
42335;BME280;27986;42.700;24.178;2023-02-15T06:16:02;94922.31;;;0.06;72.65
42335;BME280;27986;42.700;24.178;2023-02-15T06:18:27;95001.44;;;0.76;72.30
42335;BME280;27986;42.700;24.178;2023-02-15T06:20:53;94993.38;;;0.65;73.00
42335;BME280;27986;42.700;24.178;2023-02-15T06:23:18;94949.25;;;0.54;72.19
42335;BME280;27986;42.700;24.178;2023-02-15T06:25:46;95011.34;;;1.35;71.25
42335;BME280;27986;42.700;24.178;2023-02-15T06:28:12;94940.03;;;0.57;70.59
42335;BME280;27986;42.700;24.178;2023-02-15T06:30:38;94963.00;;;0.58;72.75
42335;BME280;27986;42.700;24.178;2023-02-15T06:33:04;94935.38;;;0.54;72.06
42335;BME280;27986;42.700;24.178;2023-02-15T06:35:29;94982.66;;;0.96;71.06
42335;BME280;27986;42.700;24.178;2023-02-15T06:37:55;94938.19;;;0.67;71.34
42335;BME280;27986;42.700;24.178;2023-02-15T06:40:21;94963.81;;;1.17;70.04
42335;BME280;27986;42.700;24.178;2023-02-15T06:42:47;94980.56;;;1.42;69.54
42335;BME280;27986;42.700;24.178;2023-02-15T06:45:12;94978.84;;;1.19;69.87
42335;BME280;27986;42.700;24.178;2023-02-15T06:47:38;94974.66;;;1.27;69.79
42335;BME280;27986;42.700;24.178;2023-02-15T06:50:05;95014.03;;;1.93;68.77
42335;BME280;27986;42.700;24.178;2023-02-15T06:52:31;94997.41;;;1.22;70.87
42335;BME280;27986;42.700;24.178;2023-02-15T06:54:56;94922.91;;;0.75;71.87
42335;BME280;27986;42.700;24.178;2023-02-15T06:57:21;94996.44;;;1.83;70.16
42335;BME280;27986;42.700;24.178;2023-02-15T06:59:47;95009.38;;;2.03;68.62
42335;BME280;27986;42.700;24.178;2023-02-15T07:02:13;94967.31;;;1.33;70.33
42335;BME280;27986;42.700;24.178;2023-02-15T07:04:38;94990.81;;;1.45;72.82
42335;BME280;27986;42.700;24.178;2023-02-15T07:07:08;95020.63;;;2.12;71.17
42335;BME280;27986;42.700;24.178;2023-02-15T07:09:34;94965.31;;;1.88;70.24
42335;BME280;27986;42.700;24.178;2023-02-15T07:11:59;94989.34;;;2.20;69.21
42335;BME280;27986;42.700;24.178;2023-02-15T07:14:43;95022.56;;;2.75;67.52
42335;BME280;27986;42.700;24.178;2023-02-15T07:17:09;94998.44;;;2.59;67.65
42335;BME280;27986;42.700;24.178;2023-02-15T07:19:34;94962.09;;;2.75;66.09
42335;BME280;27986;42.700;24.178;2023-02-15T07:22:00;94975.97;;;2.53;66.77
42335;BME280;27986;42.700;24.178;2023-02-15T07:24:25;94968.03;;;2.65;67.57
42335;BME280;27986;42.700;24.178;2023-02-15T07:26:51;95021.38;;;3.10;67.07
42335;BME280;27986;42.700;24.178;2023-02-15T07:29:17;94966.97;;;2.84;67.02
42335;BME280;27986;42.700;24.178;2023-02-15T07:31:43;94928.97;;;2.56;67.33
42335;BME280;27986;42.700;24.178;2023-02-15T07:34:10;94966.47;;;2.98;67.18
42335;BME280;27986;42.700;24.178;2023-02-15T07:36:36;95021.38;;;3.67;66.01
42335;BME280;27986;42.700;24.178;2023-02-15T07:39:02;94974.09;;;3.63;64.14
42335;BME280;27986;42.700;24.178;2023-02-15T07:41:27;95015.94;;;4.16;63.72
42335;BME280;27986;42.700;24.178;2023-02-15T07:43:53;94966.81;;;3.88;63.25
42335;BME280;27986;42.700;24.178;2023-02-15T07:46:18;94934.63;;;3.74;62.45
42335;BME280;27986;42.700;24.178;2023-02-15T07:48:46;94949.66;;;3.99;62.82
42335;BME280;27986;42.700;24.178;2023-02-15T07:51:12;94955.72;;;4.06;62.66
42335;BME280;27986;42.700;24.178;2023-02-15T07:53:38;95006.34;;;4.58;61.09
42335;BME280;27986;42.700;24.178;2023-02-15T07:56:06;95000.44;;;4.56;60.97
42335;BME280;27986;42.700;24.178;2023-02-15T07:58:33;94999.25;;;4.75;60.29
42335;BME280;27986;42.700;24.178;2023-02-15T08:01:27;95004.75;;;4.97;59.01
42335;BME280;27986;42.700;24.178;2023-02-15T08:03:54;95006.47;;;5.31;58.17
42335;BME280;27986;42.700;24.178;2023-02-15T08:06:22;94974.88;;;4.85;58.59
42335;BME280;27986;42.700;24.178;2023-02-15T08:08:47;94948.97;;;5.02;58.72
42335;BME280;27986;42.700;24.178;2023-02-15T08:11:17;95000.41;;;5.42;57.99
42335;BME280;27986;42.700;24.178;2023-02-15T08:14:08;95002.28;;;5.26;57.37
42335;BME280;27986;42.700;24.178;2023-02-15T08:17:00;94972.94;;;4.05;61.35
42335;BME280;27986;42.700;24.178;2023-02-15T08:19:31;94944.75;;;3.81;62.51
42335;BME280;27986;42.700;24.178;2023-02-15T08:24:24;94967.50;;;4.10;62.40
42335;BME280;27986;42.700;24.178;2023-02-15T08:26:50;94993.81;;;4.31;62.71
42335;BME280;27986;42.700;24.178;2023-02-15T08:29:19;94966.25;;;4.02;61.85
42335;BME280;27986;42.700;24.178;2023-02-15T08:31:46;94996.56;;;3.91;61.98
42335;BME280;27986;42.700;24.178;2023-02-15T08:34:16;94920.28;;;3.54;62.70
42335;BME280;27986;42.700;24.178;2023-02-15T08:36:42;94929.94;;;3.93;61.15
42335;BME280;27986;42.700;24.178;2023-02-15T08:39:10;94986.16;;;4.13;61.73
42335;BME280;27986;42.700;24.178;2023-02-15T08:41:37;95001.94;;;4.38;61.24
42335;BME280;27986;42.700;24.178;2023-02-15T08:44:11;95009.75;;;4.62;60.67
42335;BME280;27986;42.700;24.178;2023-02-15T08:46:40;94998.78;;;4.76;59.41
42335;BME280;27986;42.700;24.178;2023-02-15T08:49:07;95022.78;;;5.14;58.30
42335;BME280;27986;42.700;24.178;2023-02-15T08:51:34;94978.00;;;4.96;57.23
42335;BME280;27986;42.700;24.178;2023-02-15T08:54:02;94979.28;;;5.13;57.09
42335;BME280;27986;42.700;24.178;2023-02-15T08:56:31;94975.53;;;5.44;54.71
42335;BME280;27986;42.700;24.178;2023-02-15T08:58:57;95014.25;;;5.63;55.17
42335;BME280;27986;42.700;24.178;2023-02-15T09:01:25;94989.50;;;5.71;55.09
42335;BME280;27986;42.700;24.178;2023-02-15T09:03:55;95027.59;;;6.14;53.01
42335;BME280;27986;42.700;24.178;2023-02-15T09:06:22;94980.66;;;5.54;53.53
42335;BME280;27986;42.700;24.178;2023-02-15T09:15:39;95026.34;;;5.79;52.70
42335;BME280;27986;42.700;24.178;2023-02-15T09:18:04;95021.84;;;6.00;53.64
42335;BME280;27986;42.700;24.178;2023-02-15T09:20:33;95016.63;;;6.35;52.35
42335;BME280;27986;42.700;24.178;2023-02-15T09:22:59;95005.31;;;6.62;51.42
42335;BME280;27986;42.700;24.178;2023-02-15T09:25:26;94992.41;;;6.65;50.91
42335;BME280;27986;42.700;24.178;2023-02-15T09:27:51;95000.50;;;6.87;50.67
42335;BME280;27986;42.700;24.178;2023-02-15T09:30:17;95007.38;;;6.86;50.58
42335;BME280;27986;42.700;24.178;2023-02-15T09:32:42;94995.19;;;6.89;50.17
42335;BME280;27986;42.700;24.178;2023-02-15T09:35:08;94993.94;;;6.66;50.21
42335;BME280;27986;42.700;24.178;2023-02-15T09:37:33;95006.81;;;6.39;50.51
42335;BME280;27986;42.700;24.178;2023-02-15T09:39:59;95001.19;;;6.48;50.34
42335;BME280;27986;42.700;24.178;2023-02-15T09:48:26;95000.81;;;6.65;50.88
42335;BME280;27986;42.700;24.178;2023-02-15T09:51:14;95002.88;;;6.79;50.97
42335;BME280;27986;42.700;24.178;2023-02-15T09:56:50;94995.81;;;7.41;48.21
42335;BME280;27986;42.700;24.178;2023-02-15T10:02:15;94986.03;;;7.89;48.14
42335;BME280;27986;42.700;24.178;2023-02-15T10:04:54;94982.75;;;8.06;46.37
42335;BME280;27986;42.700;24.178;2023-02-15T10:12:57;94982.28;;;7.54;46.11
42335;BME280;27986;42.700;24.178;2023-02-15T10:15:45;94980.06;;;7.19;47.73
42335;BME280;27986;42.700;24.178;2023-02-15T10:19:01;94980.91;;;7.11;47.84
42335;BME280;27986;42.700;24.178;2023-02-15T10:27:21;94963.06;;;7.61;46.66
42335;BME280;27986;42.700;24.178;2023-02-15T10:32:23;94958.22;;;7.77;47.94
42335;BME280;27986;42.700;24.178;2023-02-15T10:35:28;94957.34;;;8.30;46.53
42335;BME280;27986;42.700;24.178;2023-02-15T10:38:29;94964.78;;;7.59;45.97
42335;BME280;27986;42.700;24.178;2023-02-15T10:51:18;94955.84;;;7.99;45.69
42335;BME280;27986;42.700;24.178;2023-02-15T11:01:54;94936.63;;;8.27;45.50
42335;BME280;27986;42.700;24.178;2023-02-15T11:06:59;94930.31;;;8.32;46.18
42335;BME280;27986;42.700;24.178;2023-02-15T11:09:36;94932.53;;;8.58;46.90
42335;BME280;27986;42.700;24.178;2023-02-15T11:12:08;94918.38;;;8.67;45.35
42335;BME280;27986;42.700;24.178;2023-02-15T11:14:52;94930.38;;;8.67;45.70
42335;BME280;27986;42.700;24.178;2023-02-15T11:17:29;94922.69;;;8.03;45.79
42335;BME280;27986;42.700;24.178;2023-02-15T11:20:08;94920.88;;;7.85;46.52
42335;BME280;27986;42.700;24.178;2023-02-15T11:22:40;94922.59;;;8.12;45.81
42335;BME280;27986;42.700;24.178;2023-02-15T11:25:17;94917.19;;;7.94;46.61
42335;BME280;27986;42.700;24.178;2023-02-15T11:27:46;94916.69;;;8.25;45.81
42335;BME280;27986;42.700;24.178;2023-02-15T11:30:19;94923.19;;;8.16;45.01
42335;BME280;27986;42.700;24.178;2023-02-15T11:32:50;94918.81;;;8.15;46.32
42335;BME280;27986;42.700;24.178;2023-02-15T11:35:31;94912.44;;;8.00;46.59
42335;BME280;27986;42.700;24.178;2023-02-15T11:38:07;94916.97;;;8.27;46.67
42335;BME280;27986;42.700;24.178;2023-02-15T11:43:21;94907.06;;;8.32;46.39
42335;BME280;27986;42.700;24.178;2023-02-15T11:45:50;94907.75;;;8.27;45.41
42335;BME280;27986;42.700;24.178;2023-02-15T11:48:16;94892.53;;;8.33;46.48
42335;BME280;27986;42.700;24.178;2023-02-15T11:50:43;94898.06;;;8.28;46.20
42335;BME280;27986;42.700;24.178;2023-02-15T11:53:13;94886.47;;;8.35;46.59
42335;BME280;27986;42.700;24.178;2023-02-15T11:55:46;94899.41;;;8.47;46.23
42335;BME280;27986;42.700;24.178;2023-02-15T12:01:20;94883.41;;;8.73;45.86
42335;BME280;27986;42.700;24.178;2023-02-15T12:03:43;94898.34;;;9.00;45.51
42335;BME280;27986;42.700;24.178;2023-02-15T12:08:51;94874.06;;;9.23;44.64
42335;BME280;27986;42.700;24.178;2023-02-15T12:11:22;94883.28;;;9.23;44.19
42335;BME280;27986;42.700;24.178;2023-02-15T12:16:19;94878.00;;;9.57;43.02
42335;BME280;27986;42.700;24.178;2023-02-15T12:18:47;94871.88;;;9.32;43.28
42335;BME280;27986;42.700;24.178;2023-02-15T12:21:30;94861.91;;;9.11;42.81
42335;BME280;27986;42.700;24.178;2023-02-15T12:24:02;94869.53;;;9.51;42.20
42335;BME280;27986;42.700;24.178;2023-02-15T12:26:30;94870.84;;;9.56;43.14
42335;BME280;27986;42.700;24.178;2023-02-15T12:28:59;94862.72;;;9.64;43.32
42335;BME280;27986;42.700;24.178;2023-02-15T12:33:54;94876.38;;;9.45;43.38
42335;BME280;27986;42.700;24.178;2023-02-15T12:36:40;94853.25;;;9.15;43.83
42335;BME280;27986;42.700;24.178;2023-02-15T12:41:38;94863.16;;;9.82;43.41
42335;BME280;27986;42.700;24.178;2023-02-15T12:44:20;94865.88;;;9.71;43.76
42335;BME280;27986;42.700;24.178;2023-02-15T12:49:32;94861.50;;;9.18;44.31
42335;BME280;27986;42.700;24.178;2023-02-15T12:52:00;94863.22;;;9.16;44.89
42335;BME280;27986;42.700;24.178;2023-02-15T12:54:30;94861.34;;;9.07;44.07
42335;BME280;27986;42.700;24.178;2023-02-15T12:56:57;94845.97;;;9.02;43.91
42335;BME280;27986;42.700;24.178;2023-02-15T12:59:23;94853.78;;;9.39;44.38
42335;BME280;27986;42.700;24.178;2023-02-15T13:01:51;94848.88;;;9.34;44.60
42335;BME280;27986;42.700;24.178;2023-02-15T13:04:29;94856.44;;;9.48;44.03
42335;BME280;27986;42.700;24.178;2023-02-15T13:07:01;94857.16;;;9.43;44.45
42335;BME280;27986;42.700;24.178;2023-02-15T13:11:57;94855.28;;;9.14;45.16
42335;BME280;27986;42.700;24.178;2023-02-15T13:14:34;94857.19;;;9.23;44.81
42335;BME280;27986;42.700;24.178;2023-02-15T13:17:03;94849.75;;;8.99;43.88
42335;BME280;27986;42.700;24.178;2023-02-15T13:19:52;94852.47;;;9.35;44.25
42335;BME280;27986;42.700;24.178;2023-02-15T13:22:38;94855.00;;;9.12;43.63
42335;BME280;27986;42.700;24.178;2023-02-15T13:25:19;94853.75;;;9.13;43.09
42335;BME280;27986;42.700;24.178;2023-02-15T13:27:51;94860.06;;;9.28;42.60
42335;BME280;27986;42.700;24.178;2023-02-15T13:30:27;94852.31;;;9.23;44.97
42335;BME280;27986;42.700;24.178;2023-02-15T13:33:13;94857.94;;;9.23;45.29
42335;BME280;27986;42.700;24.178;2023-02-15T13:35:46;94857.19;;;9.23;43.66
42335;BME280;27986;42.700;24.178;2023-02-15T13:41:12;94847.06;;;9.11;45.53
42335;BME280;27986;42.700;24.178;2023-02-15T13:43:52;94859.16;;;8.96;46.82
42335;BME280;27986;42.700;24.178;2023-02-15T13:47:24;94854.66;;;9.25;46.39
42335;BME280;27986;42.700;24.178;2023-02-15T13:49:39;94865.38;;;9.47;46.44
42335;BME280;27986;42.700;24.178;2023-02-15T13:52:28;94866.31;;;9.64;45.46
42335;BME280;27986;42.700;24.178;2023-02-15T14:00:27;94863.53;;;8.97;47.23
42335;BME280;27986;42.700;24.178;2023-02-15T14:16:57;94879.50;;;8.86;49.90
42335;BME280;27986;42.700;24.178;2023-02-15T14:19:27;94877.19;;;8.84;47.84
42335;BME280;27986;42.700;24.178;2023-02-15T14:21:58;94878.03;;;8.35;48.74
42335;BME280;27986;42.700;24.178;2023-02-15T14:24:40;94877.94;;;8.14;49.39
42335;BME280;27986;42.700;24.178;2023-02-15T14:30:03;94875.44;;;7.87;51.70
42335;BME280;27986;42.700;24.178;2023-02-15T14:32:37;94892.31;;;7.87;51.22
42335;BME280;27986;42.700;24.178;2023-02-15T14:35:13;94886.97;;;7.45;53.13
42335;BME280;27986;42.700;24.178;2023-02-15T14:40:49;94900.09;;;7.39;53.88
42335;BME280;27986;42.700;24.178;2023-02-15T14:46:36;94903.81;;;7.06;55.55
42335;BME280;27986;42.700;24.178;2023-02-15T14:49:11;94892.31;;;6.80;56.61
42335;BME280;27986;42.700;24.178;2023-02-15T15:02:17;94909.69;;;6.69;57.22
42335;BME280;27986;42.700;24.178;2023-02-15T15:05:06;94924.72;;;6.57;58.37
42335;BME280;27986;42.700;24.178;2023-02-15T15:07:44;94925.25;;;6.37;59.05
42335;BME280;27986;42.700;24.178;2023-02-15T15:15:12;94922.53;;;6.19;59.15
42335;BME280;27986;42.700;24.178;2023-02-15T15:22:51;94942.50;;;6.03;60.13
42335;BME280;27986;42.700;24.178;2023-02-15T15:25:47;94934.75;;;6.07;59.57
42335;BME280;27986;42.700;24.178;2023-02-15T15:48:20;94938.50;;;5.76;60.81
42335;BME280;27986;42.700;24.178;2023-02-15T15:50:53;94941.13;;;5.80;59.92
42335;BME280;27986;42.700;24.178;2023-02-15T15:53:24;94923.03;;;5.57;60.12
42335;BME280;27986;42.700;24.178;2023-02-15T15:55:55;94942.72;;;5.62;60.66
42335;BME280;27986;42.700;24.178;2023-02-15T15:58:23;94933.41;;;5.65;60.50
42335;BME280;27986;42.700;24.178;2023-02-15T16:00:57;94937.03;;;5.48;60.53
42335;BME280;27986;42.700;24.178;2023-02-15T16:03:28;94946.19;;;5.39;61.54
42335;BME280;27986;42.700;24.178;2023-02-15T16:05:55;94945.72;;;5.50;61.11
42335;BME280;27986;42.700;24.178;2023-02-15T16:10:52;94956.59;;;5.02;63.15
42335;BME280;27986;42.700;24.178;2023-02-15T16:13:18;94952.25;;;4.92;64.21
42335;BME280;27986;42.700;24.178;2023-02-15T16:15:47;94948.66;;;4.91;63.73
42335;BME280;27986;42.700;24.178;2023-02-15T16:18:21;94952.81;;;4.77;64.74
42335;BME280;27986;42.700;24.178;2023-02-15T16:20:54;94956.13;;;4.94;64.23